createdAt,value
2018-06-18T00:04:34.887Z,6.13
2018-06-18T00:09:37.991Z,6.90
2018-06-18T00:14:41.112Z,6.90
2018-06-18T00:19:44.294Z,6.30
2018-06-18T00:24:47.503Z,7.07
2018-06-18T00:29:50.632Z,6.87
2018-06-18T00:34:53.771Z,7.10
2018-06-18T00:39:56.865Z,7.53
2018-06-18T00:45:00.901Z,6.73
2018-06-18T00:50:05.192Z,7.73
2018-06-18T00:55:08.352Z,7.20
2018-06-18T01:00:11.424Z,7.73
2018-06-18T01:05:14.786Z,7.00
2018-06-18T01:10:18.114Z,7.57
2018-06-18T01:15:21.190Z,7.33
2018-06-18T01:20:24.340Z,7.53
2018-06-18T01:25:27.470Z,7.43
2018-06-18T01:30:30.985Z,8.63
2018-06-18T01:35:34.024Z,8.57
2018-06-18T01:40:37.223Z,8.57
2018-06-18T01:45:40.377Z,8.20
2018-06-18T01:50:43.797Z,8.10
2018-06-18T01:55:46.962Z,8.17
2018-06-18T02:00:50.181Z,7.77
2018-06-18T02:05:53.509Z,8.60
2018-06-18T02:10:56.708Z,7.97
2018-06-18T02:15:59.850Z,8.50
2018-06-18T02:21:03.206Z,8.07
2018-06-18T02:26:06.437Z,7.67
2018-06-18T02:31:09.536Z,7.10
2018-06-18T02:36:13.557Z,7.40
2018-06-18T02:41:16.606Z,6.80
2018-06-18T02:46:19.889Z,6.73
2018-06-18T02:51:23.136Z,5.67
2018-06-18T02:56:48.172Z,5.20
2018-06-18T03:01:51.237Z,5.13
2018-06-18T03:06:54.369Z,4.53
2018-06-18T03:11:59.474Z,4.50
2018-06-18T03:17:02.608Z,4.90
2018-06-18T03:22:05.748Z,4.67
2018-06-18T03:27:08.867Z,4.97
2018-06-18T03:32:14.382Z,4.60
2018-06-18T03:37:18.937Z,4.73
2018-06-18T03:42:21.953Z,4.33
2018-06-18T03:47:27.141Z,4.50
2018-06-18T03:52:30.610Z,4.50
2018-06-18T03:57:33.756Z,4.00
2018-06-18T04:02:46.114Z,3.90
2018-06-18T04:07:49.873Z,3.80
2018-06-18T04:12:53.121Z,3.90
2018-06-18T04:18:00.654Z,4.17
2018-06-18T04:23:03.921Z,3.73
2018-06-18T04:28:07.494Z,3.33
2018-06-18T04:33:11.358Z,3.50
2018-06-18T04:38:14.945Z,3.40
2018-06-18T04:43:18.249Z,3.70
2018-06-18T04:48:21.408Z,3.53
2018-06-18T04:53:24.481Z,4.10
2018-06-18T04:58:27.604Z,4.03
2018-06-18T05:03:30.730Z,3.40
2018-06-18T05:09:00.034Z,4.23
2018-06-18T05:14:03.188Z,3.80
2018-06-18T05:19:06.543Z,4.13
2018-06-18T05:24:09.628Z,4.43
2018-06-18T05:29:12.759Z,4.47
2018-06-18T05:34:18.139Z,4.50
2018-06-18T05:39:21.260Z,4.13
2018-06-18T05:44:24.566Z,4.90
2018-06-18T05:49:27.841Z,4.30
2018-06-18T05:54:30.981Z,4.93
2018-06-18T05:59:34.135Z,4.50
2018-06-18T06:04:37.271Z,4.43
2018-06-18T06:09:40.506Z,4.23
2018-06-18T06:14:43.643Z,4.37
2018-06-18T06:19:46.839Z,4.20
2018-06-18T06:24:50.027Z,3.73
2018-06-18T06:29:53.117Z,3.90
2018-06-18T06:35:00.567Z,3.73
2018-06-18T06:40:03.982Z,3.67
2018-06-18T06:45:07.084Z,3.30
2018-06-18T06:50:10.174Z,3.27
2018-06-18T06:55:13.334Z,3.30
2018-06-18T07:00:16.438Z,3.07
2018-06-18T07:05:24.854Z,3.63
2018-06-18T07:10:28.820Z,3.97
2018-06-18T07:15:36.833Z,3.97
2018-06-18T07:20:44.375Z,4.17
2018-06-18T07:25:47.824Z,3.77
2018-06-18T07:30:50.953Z,3.80
2018-06-18T07:35:54.032Z,3.60
2018-06-18T07:40:57.383Z,3.93
2018-06-18T07:46:00.706Z,4.30
2018-06-18T07:51:03.848Z,3.77
2018-06-18T07:56:07.044Z,4.63
2018-06-18T08:01:10.149Z,3.93
2018-06-18T08:06:13.283Z,4.23
2018-06-18T08:11:16.387Z,4.53
2018-06-18T08:16:19.495Z,4.40
2018-06-18T08:21:22.602Z,4.50
2018-06-18T08:26:25.695Z,4.90
2018-06-18T08:31:28.924Z,4.00
2018-06-18T08:36:32.107Z,4.77
2018-06-18T08:41:35.237Z,4.03
2018-06-18T08:46:38.363Z,5.20
2018-06-18T08:51:41.465Z,4.30
2018-06-18T08:56:45.242Z,4.70
2018-06-18T09:01:48.443Z,5.00
2018-06-18T09:06:51.560Z,5.00
2018-06-18T09:11:54.683Z,4.23
2018-06-18T09:17:05.540Z,4.23
2018-06-18T09:22:08.648Z,4.00
2018-06-18T09:27:11.747Z,3.93
2018-06-18T09:32:14.916Z,3.57
2018-06-18T09:37:17.909Z,3.50
2018-06-18T09:42:21.002Z,3.90
2018-06-18T09:47:24.073Z,4.03
2018-06-18T09:52:27.346Z,3.53
2018-06-18T09:57:30.455Z,3.53
2018-06-18T10:02:33.631Z,3.67
2018-06-18T10:07:36.761Z,3.70
2018-06-18T10:12:39.876Z,4.30
2018-06-18T10:17:43.057Z,3.70
2018-06-18T10:22:46.190Z,3.20
2018-06-18T10:27:49.305Z,3.27
2018-06-18T10:32:52.375Z,3.40
2018-06-18T10:37:55.466Z,3.83
2018-06-18T10:42:58.614Z,4.17
2018-06-18T10:48:01.742Z,3.93
2018-06-18T10:53:04.921Z,3.90
2018-06-18T10:58:08.069Z,3.73
2018-06-18T11:03:11.149Z,3.47
2018-06-18T11:08:14.499Z,3.50
2018-06-18T11:13:17.568Z,4.30
2018-06-18T11:18:20.656Z,3.70
2018-06-18T11:23:23.893Z,3.90
2018-06-18T11:28:27.052Z,3.77
2018-06-18T11:33:30.082Z,3.60
2018-06-18T11:38:33.618Z,3.30
2018-06-18T11:43:36.935Z,3.17
2018-06-18T11:48:40.084Z,3.20
2018-06-18T11:53:43.262Z,2.93
2018-06-18T11:58:46.324Z,2.93
2018-06-18T12:03:49.482Z,2.80
2018-06-18T12:08:52.573Z,2.53
2018-06-18T12:13:57.780Z,1.83
2018-06-18T12:19:01.315Z,2.20
2018-06-18T12:24:04.723Z,2.70
2018-06-18T12:29:07.939Z,2.63
2018-06-18T12:34:11.225Z,2.67
2018-06-18T12:39:14.390Z,2.27
2018-06-18T12:44:17.553Z,2.60
2018-06-18T12:49:21.826Z,2.27
2018-06-18T12:54:24.956Z,2.27
2018-06-18T12:59:28.653Z,2.50
2018-06-18T13:04:33.982Z,2.30
2018-06-18T13:09:37.298Z,1.90
2018-06-18T13:14:40.491Z,2.00
2018-06-18T13:19:43.623Z,1.80
2018-06-18T13:24:46.694Z,1.70
2018-06-18T13:29:49.753Z,1.93
2018-06-18T13:34:52.878Z,1.90
2018-06-18T13:39:56.357Z,1.50
2018-06-18T13:45:00.402Z,1.83
2018-06-18T13:50:04.443Z,1.77
2018-06-18T13:55:07.831Z,1.93
2018-06-18T14:00:10.953Z,1.73
2018-06-18T14:05:14.391Z,1.80
2018-06-18T14:10:18.321Z,1.97
2018-06-18T14:15:21.490Z,1.73
2018-06-18T14:20:24.594Z,1.80
2018-06-18T14:25:27.688Z,1.80
2018-06-18T14:30:30.950Z,1.90
2018-06-18T14:35:34.200Z,1.63
2018-06-18T14:40:37.468Z,1.50
2018-06-18T14:45:40.634Z,1.60
2018-06-18T14:50:43.819Z,1.60
2018-06-18T14:55:52.306Z,1.60
2018-06-18T15:00:55.453Z,1.30
2018-06-18T15:05:59.008Z,1.73
2018-06-18T15:11:02.274Z,1.50
2018-06-18T15:16:05.768Z,1.90
2018-06-18T15:21:09.217Z,1.80
2018-06-18T15:26:12.352Z,1.90
2018-06-18T15:31:15.576Z,1.40
2018-06-18T15:36:18.726Z,1.90
2018-06-18T15:41:21.994Z,1.97
2018-06-18T15:46:25.149Z,2.03
2018-06-18T15:51:28.359Z,1.70
2018-06-18T15:56:31.751Z,1.90
2018-06-18T16:01:35.165Z,2.17
2018-06-18T16:06:38.580Z,1.80
2018-06-18T16:11:41.941Z,2.00
2018-06-18T16:16:46.154Z,2.40
2018-06-18T16:21:49.397Z,1.63
2018-06-18T16:26:52.583Z,1.80
2018-06-18T16:31:55.853Z,1.67
2018-06-18T16:36:59.169Z,2.37
2018-06-18T16:42:02.530Z,1.53
2018-06-18T16:47:05.691Z,2.00
2018-06-18T16:52:08.915Z,1.43
2018-06-18T16:57:12.069Z,1.60
2018-06-18T17:02:15.345Z,1.80
2018-06-18T17:07:18.855Z,1.60
2018-06-18T17:12:21.968Z,1.40
2018-06-18T17:17:25.217Z,1.20
2018-06-18T17:22:28.410Z,1.30
2018-06-18T17:27:31.763Z,1.40
2018-06-18T17:32:34.903Z,1.03
2018-06-18T17:37:38.358Z,1.13
2018-06-18T17:42:41.649Z,1.10
2018-06-18T17:47:44.763Z,0.90
2018-06-18T17:52:47.945Z,1.00
2018-06-18T17:57:51.137Z,1.20
2018-06-18T18:02:54.312Z,1.30
2018-06-18T18:07:57.532Z,1.10
2018-06-18T18:13:00.790Z,1.20
2018-06-18T18:18:04.343Z,1.83
2018-06-18T18:23:07.625Z,1.20
2018-06-18T18:28:10.794Z,1.20
2018-06-18T18:33:14.188Z,1.00
2018-06-18T18:38:18.654Z,1.20
2018-06-18T18:43:21.944Z,1.30
2018-06-18T18:48:25.054Z,1.50
2018-06-18T18:53:28.315Z,1.60
2018-06-18T18:59:34.560Z,1.40
2018-06-18T19:04:42.505Z,1.40
2018-06-18T19:09:55.556Z,1.30
2018-06-18T19:15:00.155Z,1.30
2018-06-18T19:20:13.938Z,1.50
2018-06-18T19:25:19.061Z,1.30
2018-06-18T19:30:22.376Z,1.70
2018-06-18T19:35:25.641Z,1.70
2018-06-18T19:40:28.894Z,1.70
2018-06-18T19:45:34.551Z,1.70
2018-06-18T19:50:38.029Z,2.20
2018-06-18T19:55:41.331Z,1.80
2018-06-18T20:00:47.208Z,2.30
2018-06-18T20:05:52.965Z,7.80
2018-06-18T20:10:56.104Z,4.13
2018-06-18T20:15:59.670Z,2.53
2018-06-18T20:21:02.839Z,2.50
2018-06-18T20:26:08.419Z,1.80
2018-06-18T20:31:11.583Z,2.43
2018-06-18T20:36:16.109Z,2.07
2018-06-18T20:41:19.636Z,4.27
2018-06-18T20:46:22.801Z,2.90
2018-06-18T20:51:26.386Z,2.70
2018-06-18T20:56:29.503Z,2.40
2018-06-18T21:01:32.780Z,2.10
2018-06-18T21:06:36.085Z,2.30
2018-06-18T21:11:39.778Z,2.87
2018-06-18T21:16:45.167Z,2.93
2018-06-18T21:21:48.449Z,2.30
2018-06-18T21:26:51.672Z,2.20
2018-06-18T21:31:54.796Z,2.00
2018-06-18T21:36:58.461Z,2.30
2018-06-18T21:42:02.042Z,2.53
2018-06-18T21:47:05.428Z,2.70
2018-06-18T21:52:08.722Z,2.57
2018-06-18T21:57:11.943Z,2.17
2018-06-18T22:02:15.087Z,2.20
2018-06-18T22:07:18.273Z,2.53
2018-06-18T22:12:21.450Z,2.60
2018-06-18T22:17:24.610Z,2.40
2018-06-18T22:22:27.803Z,2.43
2018-06-18T22:27:31.017Z,2.87
2018-06-18T22:32:34.181Z,2.87
2018-06-18T22:37:37.335Z,3.27
2018-06-18T22:42:40.442Z,2.73
2018-06-18T22:47:43.783Z,2.90
2018-06-18T22:52:46.908Z,3.17
2018-06-18T22:57:50.206Z,2.83
2018-06-18T23:02:53.308Z,2.70
2018-06-18T23:07:56.468Z,2.70
2018-06-18T23:12:59.891Z,2.33
2018-06-18T23:18:02.982Z,3.37
2018-06-18T23:23:06.095Z,2.97
2018-06-18T23:28:09.598Z,3.00
2018-06-18T23:33:12.831Z,2.97
2018-06-18T23:38:16.030Z,2.60
2018-06-18T23:43:19.197Z,3.07
2018-06-18T23:48:22.309Z,2.83
2018-06-18T23:53:25.413Z,3.20
2018-06-18T23:58:28.857Z,2.90
